sensor_id;sensor_type;location;lat;lon;timestamp;temperature;humidity
19999;DHT22;10160;50.926;4.374;2022-11-02T00:01:36;14.40;99.90
19999;DHT22;10160;50.926;4.374;2022-11-02T00:04:01;14.30;99.90
19999;DHT22;10160;50.926;4.374;2022-11-02T00:06:27;14.30;99.90
19999;DHT22;10160;50.926;4.374;2022-11-02T00:08:53;14.30;99.90
19999;DHT22;10160;50.926;4.374;2022-11-02T00:11:18;14.30;99.90
19999;DHT22;10160;50.926;4.374;2022-11-02T00:13:44;14.30;99.90
19999;DHT22;10160;50.926;4.374;2022-11-02T00:16:12;14.20;99.90
19999;DHT22;10160;50.926;4.374;2022-11-02T00:18:41;14.20;99.90
19999;DHT22;10160;50.926;4.374;2022-11-02T00:21:07;14.10;99.90
19999;DHT22;10160;50.926;4.374;2022-11-02T00:23:33;14.20;99.90
19999;DHT22;10160;50.926;4.374;2022-11-02T00:26:00;14.20;99.90
19999;DHT22;10160;50.926;4.374;2022-11-02T00:28:26;14.10;99.90
19999;DHT22;10160;50.926;4.374;2022-11-02T00:30:53;14.20;99.90
19999;DHT22;10160;50.926;4.374;2022-11-02T00:33:18;14.10;99.90
19999;DHT22;10160;50.926;4.374;2022-11-02T00:35:44;14.10;99.90
19999;DHT22;10160;50.926;4.374;2022-11-02T00:38:10;14.10;99.90
19999;DHT22;10160;50.926;4.374;2022-11-02T00:40:36;14.10;99.90
19999;DHT22;10160;50.926;4.374;2022-11-02T00:43:02;14.10;99.90
19999;DHT22;10160;50.926;4.374;2022-11-02T00:45:27;14.10;99.90
19999;DHT22;10160;50.926;4.374;2022-11-02T00:47:53;14.10;99.90
19999;DHT22;10160;50.926;4.374;2022-11-02T00:50:19;14.00;99.90
19999;DHT22;10160;50.926;4.374;2022-11-02T00:52:44;14.00;99.90
19999;DHT22;10160;50.926;4.374;2022-11-02T00:55:10;14.00;99.90
19999;DHT22;10160;50.926;4.374;2022-11-02T00:57:37;14.00;99.90
19999;DHT22;10160;50.926;4.374;2022-11-02T01:00:05;14.00;99.90
19999;DHT22;10160;50.926;4.374;2022-11-02T01:02:32;14.00;99.90
19999;DHT22;10160;50.926;4.374;2022-11-02T01:04:58;14.00;99.90
19999;DHT22;10160;50.926;4.374;2022-11-02T01:07:23;14.00;99.90
19999;DHT22;10160;50.926;4.374;2022-11-02T01:09:49;14.00;99.90
19999;DHT22;10160;50.926;4.374;2022-11-02T01:12:15;14.00;99.90
19999;DHT22;10160;50.926;4.374;2022-11-02T01:14:40;14.00;99.90
19999;DHT22;10160;50.926;4.374;2022-11-02T01:17:06;14.00;99.90
19999;DHT22;10160;50.926;4.374;2022-11-02T01:19:32;13.90;99.90
19999;DHT22;10160;50.926;4.374;2022-11-02T01:21:57;13.90;99.90
19999;DHT22;10160;50.926;4.374;2022-11-02T01:24:23;13.80;99.90
19999;DHT22;10160;50.926;4.374;2022-11-02T01:26:50;13.80;99.90
19999;DHT22;10160;50.926;4.374;2022-11-02T01:29:16;13.80;99.90
19999;DHT22;10160;50.926;4.374;2022-11-02T01:31:42;13.90;99.90
19999;DHT22;10160;50.926;4.374;2022-11-02T01:34:09;13.80;99.90
19999;DHT22;10160;50.926;4.374;2022-11-02T01:36:35;13.90;99.90
19999;DHT22;10160;50.926;4.374;2022-11-02T01:39:01;13.90;99.90
19999;DHT22;10160;50.926;4.374;2022-11-02T01:41:26;13.80;99.90
19999;DHT22;10160;50.926;4.374;2022-11-02T01:43:55;13.70;99.90
19999;DHT22;10160;50.926;4.374;2022-11-02T01:46:39;13.70;99.90
19999;DHT22;10160;50.926;4.374;2022-11-02T01:49:09;13.70;99.90
19999;DHT22;10160;50.926;4.374;2022-11-02T01:51:39;13.80;99.90
19999;DHT22;10160;50.926;4.374;2022-11-02T01:54:11;13.70;99.90
19999;DHT22;10160;50.926;4.374;2022-11-02T01:56:39;13.70;99.90
19999;DHT22;10160;50.926;4.374;2022-11-02T01:59:10;13.70;99.90
19999;DHT22;10160;50.926;4.374;2022-11-02T02:01:37;13.70;99.90
19999;DHT22;10160;50.926;4.374;2022-11-02T02:04:03;13.70;99.90
19999;DHT22;10160;50.926;4.374;2022-11-02T02:06:29;13.70;99.90
19999;DHT22;10160;50.926;4.374;2022-11-02T02:08:59;13.70;99.90
19999;DHT22;10160;50.926;4.374;2022-11-02T02:11:33;13.70;99.90
19999;DHT22;10160;50.926;4.374;2022-11-02T02:14:05;13.80;99.90
19999;DHT22;10160;50.926;4.374;2022-11-02T02:16:45;13.80;99.90
19999;DHT22;10160;50.926;4.374;2022-11-02T02:19:35;13.80;99.90
19999;DHT22;10160;50.926;4.374;2022-11-02T02:25:22;13.70;99.90
19999;DHT22;10160;50.926;4.374;2022-11-02T02:30:29;13.60;99.90
19999;DHT22;10160;50.926;4.374;2022-11-02T02:33:04;13.60;99.90
19999;DHT22;10160;50.926;4.374;2022-11-02T02:35:44;13.60;99.90
19999;DHT22;10160;50.926;4.374;2022-11-02T02:38:18;13.60;99.90
19999;DHT22;10160;50.926;4.374;2022-11-02T02:40:58;13.50;99.90
19999;DHT22;10160;50.926;4.374;2022-11-02T02:43:48;13.60;99.90
19999;DHT22;10160;50.926;4.374;2022-11-02T02:46:20;13.60;99.90
19999;DHT22;10160;50.926;4.374;2022-11-02T02:48:47;13.60;99.90
19999;DHT22;10160;50.926;4.374;2022-11-02T02:51:26;13.60;99.90
19999;DHT22;10160;50.926;4.374;2022-11-02T02:54:05;13.50;99.90
19999;DHT22;10160;50.926;4.374;2022-11-02T02:56:38;13.50;99.90
19999;DHT22;10160;50.926;4.374;2022-11-02T02:59:15;13.50;99.90
19999;DHT22;10160;50.926;4.374;2022-11-02T03:01:43;13.60;99.90
19999;DHT22;10160;50.926;4.374;2022-11-02T03:04:11;13.60;99.90
19999;DHT22;10160;50.926;4.374;2022-11-02T03:06:37;13.50;99.90
19999;DHT22;10160;50.926;4.374;2022-11-02T03:12:24;13.50;99.90
19999;DHT22;10160;50.926;4.374;2022-11-02T03:20:37;13.40;99.90
19999;DHT22;10160;50.926;4.374;2022-11-02T03:23:34;13.40;99.90
19999;DHT22;10160;50.926;4.374;2022-11-02T03:26:33;13.40;99.90
19999;DHT22;10160;50.926;4.374;2022-11-02T03:29:02;13.30;99.90
19999;DHT22;10160;50.926;4.374;2022-11-02T03:31:33;13.30;99.90
19999;DHT22;10160;50.926;4.374;2022-11-02T03:34:07;13.40;99.90
19999;DHT22;10160;50.926;4.374;2022-11-02T03:37:26;13.30;99.90
19999;DHT22;10160;50.926;4.374;2022-11-02T03:39:46;13.20;99.90
19999;DHT22;10160;50.926;4.374;2022-11-02T03:42:17;13.20;99.90
19999;DHT22;10160;50.926;4.374;2022-11-02T03:44:44;13.20;99.90
19999;DHT22;10160;50.926;4.374;2022-11-02T03:47:14;13.20;99.90
19999;DHT22;10160;50.926;4.374;2022-11-02T03:49:41;13.30;99.90
19999;DHT22;10160;50.926;4.374;2022-11-02T03:52:11;13.20;99.90
19999;DHT22;10160;50.926;4.374;2022-11-02T03:57:35;13.10;99.90
19999;DHT22;10160;50.926;4.374;2022-11-02T04:02:35;13.10;99.90
19999;DHT22;10160;50.926;4.374;2022-11-02T04:05:01;13.00;99.90
19999;DHT22;10160;50.926;4.374;2022-11-02T04:07:31;13.10;99.90
19999;DHT22;10160;50.926;4.374;2022-11-02T04:10:18;13.00;99.90
19999;DHT22;10160;50.926;4.374;2022-11-02T04:12:43;13.00;99.90
19999;DHT22;10160;50.926;4.374;2022-11-02T04:15:27;13.00;99.90
19999;DHT22;10160;50.926;4.374;2022-11-02T04:17:53;13.00;99.90
19999;DHT22;10160;50.926;4.374;2022-11-02T04:20:37;13.00;99.90
19999;DHT22;10160;50.926;4.374;2022-11-02T04:23:02;13.00;99.90
19999;DHT22;10160;50.926;4.374;2022-11-02T04:25:52;12.90;99.90
19999;DHT22;10160;50.926;4.374;2022-11-02T04:28:17;12.90;99.90
19999;DHT22;10160;50.926;4.374;2022-11-02T04:30:43;12.90;99.90
19999;DHT22;10160;50.926;4.374;2022-11-02T04:33:09;12.90;99.90
19999;DHT22;10160;50.926;4.374;2022-11-02T04:35:53;12.90;99.90
19999;DHT22;10160;50.926;4.374;2022-11-02T04:38:18;12.90;99.90
19999;DHT22;10160;50.926;4.374;2022-11-02T04:41:02;12.80;99.90
19999;DHT22;10160;50.926;4.374;2022-11-02T04:43:46;12.80;99.90
19999;DHT22;10160;50.926;4.374;2022-11-02T04:46:12;12.80;99.90
19999;DHT22;10160;50.926;4.374;2022-11-02T04:48:37;12.80;99.90
19999;DHT22;10160;50.926;4.374;2022-11-02T04:51:03;12.70;99.90
19999;DHT22;10160;50.926;4.374;2022-11-02T04:53:29;12.70;99.90
19999;DHT22;10160;50.926;4.374;2022-11-02T04:55:54;12.70;99.90
19999;DHT22;10160;50.926;4.374;2022-11-02T04:58:20;12.70;99.90
19999;DHT22;10160;50.926;4.374;2022-11-02T05:00:46;12.70;99.90
19999;DHT22;10160;50.926;4.374;2022-11-02T05:03:11;12.70;99.90
19999;DHT22;10160;50.926;4.374;2022-11-02T05:05:37;12.60;99.90
19999;DHT22;10160;50.926;4.374;2022-11-02T05:08:02;12.60;99.90
19999;DHT22;10160;50.926;4.374;2022-11-02T05:10:28;12.60;99.90
19999;DHT22;10160;50.926;4.374;2022-11-02T05:12:58;12.70;99.90
19999;DHT22;10160;50.926;4.374;2022-11-02T05:15:24;12.50;99.90
19999;DHT22;10160;50.926;4.374;2022-11-02T05:17:50;12.40;99.90
19999;DHT22;10160;50.926;4.374;2022-11-02T05:20:15;12.40;99.90
19999;DHT22;10160;50.926;4.374;2022-11-02T05:22:41;12.40;99.90
19999;DHT22;10160;50.926;4.374;2022-11-02T05:25:11;12.40;99.90
19999;DHT22;10160;50.926;4.374;2022-11-02T05:27:37;12.40;99.90
19999;DHT22;10160;50.926;4.374;2022-11-02T05:30:04;12.40;99.90
19999;DHT22;10160;50.926;4.374;2022-11-02T05:32:30;12.40;99.90
19999;DHT22;10160;50.926;4.374;2022-11-02T05:34:56;12.40;99.90
19999;DHT22;10160;50.926;4.374;2022-11-02T05:37:22;12.40;99.90
19999;DHT22;10160;50.926;4.374;2022-11-02T05:39:48;12.40;99.90
19999;DHT22;10160;50.926;4.374;2022-11-02T05:42:13;12.30;99.90
19999;DHT22;10160;50.926;4.374;2022-11-02T05:44:39;12.40;99.90
19999;DHT22;10160;50.926;4.374;2022-11-02T05:47:05;12.40;99.90
19999;DHT22;10160;50.926;4.374;2022-11-02T05:49:30;12.30;99.90
19999;DHT22;10160;50.926;4.374;2022-11-02T05:51:56;12.30;99.90
19999;DHT22;10160;50.926;4.374;2022-11-02T05:54:21;12.20;99.90
19999;DHT22;10160;50.926;4.374;2022-11-02T05:56:47;12.20;99.90
19999;DHT22;10160;50.926;4.374;2022-11-02T05:59:13;12.20;99.90
19999;DHT22;10160;50.926;4.374;2022-11-02T06:01:38;12.20;99.90
19999;DHT22;10160;50.926;4.374;2022-11-02T06:04:04;12.20;99.90
19999;DHT22;10160;50.926;4.374;2022-11-02T06:06:30;12.10;99.90
19999;DHT22;10160;50.926;4.374;2022-11-02T06:08:56;12.10;99.90
19999;DHT22;10160;50.926;4.374;2022-11-02T06:11:22;12.10;99.90
19999;DHT22;10160;50.926;4.374;2022-11-02T06:13:49;12.10;99.90
19999;DHT22;10160;50.926;4.374;2022-11-02T06:16:16;12.10;99.90
19999;DHT22;10160;50.926;4.374;2022-11-02T06:18:41;12.10;99.90
19999;DHT22;10160;50.926;4.374;2022-11-02T06:21:07;12.00;99.90
19999;DHT22;10160;50.926;4.374;2022-11-02T06:23:33;12.00;99.90
19999;DHT22;10160;50.926;4.374;2022-11-02T06:25:59;12.00;99.90
19999;DHT22;10160;50.926;4.374;2022-11-02T06:28:26;12.10;99.90
19999;DHT22;10160;50.926;4.374;2022-11-02T06:30:52;12.10;99.90
19999;DHT22;10160;50.926;4.374;2022-11-02T06:33:18;12.20;99.90
19999;DHT22;10160;50.926;4.374;2022-11-02T06:35:46;12.10;99.90
19999;DHT22;10160;50.926;4.374;2022-11-02T06:38:12;12.10;99.90
19999;DHT22;10160;50.926;4.374;2022-11-02T06:40:38;12.10;99.90
19999;DHT22;10160;50.926;4.374;2022-11-02T06:43:04;12.00;99.90
19999;DHT22;10160;50.926;4.374;2022-11-02T06:45:30;11.90;99.90
19999;DHT22;10160;50.926;4.374;2022-11-02T06:47:55;11.90;99.90
19999;DHT22;10160;50.926;4.374;2022-11-02T06:50:21;11.90;99.90
19999;DHT22;10160;50.926;4.374;2022-11-02T06:52:48;11.80;99.90
19999;DHT22;10160;50.926;4.374;2022-11-02T06:55:15;11.90;99.90
19999;DHT22;10160;50.926;4.374;2022-11-02T06:57:41;11.80;99.90
19999;DHT22;10160;50.926;4.374;2022-11-02T07:00:10;11.80;99.90
19999;DHT22;10160;50.926;4.374;2022-11-02T07:02:40;11.90;99.90
19999;DHT22;10160;50.926;4.374;2022-11-02T07:05:05;11.80;99.90
19999;DHT22;10160;50.926;4.374;2022-11-02T07:07:31;11.70;99.90
19999;DHT22;10160;50.926;4.374;2022-11-02T07:09:57;11.80;99.90
19999;DHT22;10160;50.926;4.374;2022-11-02T07:12:23;11.80;99.90
19999;DHT22;10160;50.926;4.374;2022-11-02T07:14:48;11.90;99.90
19999;DHT22;10160;50.926;4.374;2022-11-02T07:17:14;11.90;99.90
19999;DHT22;10160;50.926;4.374;2022-11-02T07:19:40;11.90;99.90
19999;DHT22;10160;50.926;4.374;2022-11-02T07:22:05;12.00;99.90
19999;DHT22;10160;50.926;4.374;2022-11-02T07:24:31;12.00;99.90
19999;DHT22;10160;50.926;4.374;2022-11-02T07:26:56;12.00;99.90
19999;DHT22;10160;50.926;4.374;2022-11-02T07:29:22;11.90;99.90
19999;DHT22;10160;50.926;4.374;2022-11-02T07:31:48;11.90;99.90
19999;DHT22;10160;50.926;4.374;2022-11-02T07:34:13;11.90;99.90
19999;DHT22;10160;50.926;4.374;2022-11-02T07:36:39;11.90;99.90
19999;DHT22;10160;50.926;4.374;2022-11-02T07:39:05;11.80;99.90
19999;DHT22;10160;50.926;4.374;2022-11-02T07:41:32;11.80;99.90
19999;DHT22;10160;50.926;4.374;2022-11-02T07:43:58;11.80;99.90
19999;DHT22;10160;50.926;4.374;2022-11-02T07:46:24;11.80;99.90
19999;DHT22;10160;50.926;4.374;2022-11-02T07:48:50;11.80;99.90
19999;DHT22;10160;50.926;4.374;2022-11-02T07:51:15;12.00;99.90
19999;DHT22;10160;50.926;4.374;2022-11-02T07:53:41;12.00;99.90
19999;DHT22;10160;50.926;4.374;2022-11-02T07:56:06;12.00;99.90
19999;DHT22;10160;50.926;4.374;2022-11-02T07:58:32;11.90;99.90
19999;DHT22;10160;50.926;4.374;2022-11-02T08:00:59;12.00;99.90
19999;DHT22;10160;50.926;4.374;2022-11-02T08:03:26;12.00;99.90
19999;DHT22;10160;50.926;4.374;2022-11-02T08:05:52;12.00;99.90
19999;DHT22;10160;50.926;4.374;2022-11-02T08:08:19;12.00;99.90
19999;DHT22;10160;50.926;4.374;2022-11-02T08:10:47;12.10;99.90
19999;DHT22;10160;50.926;4.374;2022-11-02T08:13:15;12.10;99.90
19999;DHT22;10160;50.926;4.374;2022-11-02T08:15:41;12.10;99.90
19999;DHT22;10160;50.926;4.374;2022-11-02T08:18:15;12.20;99.90
19999;DHT22;10160;50.926;4.374;2022-11-02T08:20:41;12.30;99.90
19999;DHT22;10160;50.926;4.374;2022-11-02T08:23:08;12.20;99.90
19999;DHT22;10160;50.926;4.374;2022-11-02T08:25:36;12.30;99.90
19999;DHT22;10160;50.926;4.374;2022-11-02T08:28:02;12.20;99.90
19999;DHT22;10160;50.926;4.374;2022-11-02T08:30:29;12.20;99.90
19999;DHT22;10160;50.926;4.374;2022-11-02T08:32:55;12.30;99.90
19999;DHT22;10160;50.926;4.374;2022-11-02T08:35:26;12.40;99.90
19999;DHT22;10160;50.926;4.374;2022-11-02T08:37:54;12.60;99.90
19999;DHT22;10160;50.926;4.374;2022-11-02T08:40:19;12.60;99.90
19999;DHT22;10160;50.926;4.374;2022-11-02T08:42:45;12.70;99.90
19999;DHT22;10160;50.926;4.374;2022-11-02T08:45:11;12.60;99.90
19999;DHT22;10160;50.926;4.374;2022-11-02T08:47:40;12.50;99.90
19999;DHT22;10160;50.926;4.374;2022-11-02T08:50:10;12.50;99.90
19999;DHT22;10160;50.926;4.374;2022-11-02T08:52:36;12.50;99.90
19999;DHT22;10160;50.926;4.374;2022-11-02T08:55:03;12.60;99.90
19999;DHT22;10160;50.926;4.374;2022-11-02T08:57:29;12.60;99.90
19999;DHT22;10160;50.926;4.374;2022-11-02T08:59:55;12.80;99.90
19999;DHT22;10160;50.926;4.374;2022-11-02T09:02:20;12.70;99.90
19999;DHT22;10160;50.926;4.374;2022-11-02T09:04:46;12.80;99.90
19999;DHT22;10160;50.926;4.374;2022-11-02T09:07:12;12.80;99.90
19999;DHT22;10160;50.926;4.374;2022-11-02T09:09:40;13.00;99.90
19999;DHT22;10160;50.926;4.374;2022-11-02T09:12:06;12.90;99.90
19999;DHT22;10160;50.926;4.374;2022-11-02T09:14:32;12.90;99.90
19999;DHT22;10160;50.926;4.374;2022-11-02T09:16:57;13.10;99.90
19999;DHT22;10160;50.926;4.374;2022-11-02T09:19:23;13.10;99.90
19999;DHT22;10160;50.926;4.374;2022-11-02T09:21:49;13.30;99.90
19999;DHT22;10160;50.926;4.374;2022-11-02T09:24:15;13.40;99.90
19999;DHT22;10160;50.926;4.374;2022-11-02T09:26:41;13.50;99.90
19999;DHT22;10160;50.926;4.374;2022-11-02T09:29:06;13.50;99.90
19999;DHT22;10160;50.926;4.374;2022-11-02T09:31:32;13.60;99.90
19999;DHT22;10160;50.926;4.374;2022-11-02T09:33:58;13.90;99.90
19999;DHT22;10160;50.926;4.374;2022-11-02T09:36:23;14.10;99.90
19999;DHT22;10160;50.926;4.374;2022-11-02T09:38:49;14.20;99.90
19999;DHT22;10160;50.926;4.374;2022-11-02T09:44:02;14.40;99.90
19999;DHT22;10160;50.926;4.374;2022-11-02T09:46:37;14.60;99.90
19999;DHT22;10160;50.926;4.374;2022-11-02T09:49:15;15.00;99.90
19999;DHT22;10160;50.926;4.374;2022-11-02T09:51:45;15.60;99.90
19999;DHT22;10160;50.926;4.374;2022-11-02T09:57:25;17.10;99.90
19999;DHT22;10160;50.926;4.374;2022-11-02T09:59:52;18.10;99.90
19999;DHT22;10160;50.926;4.374;2022-11-02T10:05:31;17.80;99.90
19999;DHT22;10160;50.926;4.374;2022-11-02T10:16:24;19.10;99.90
19999;DHT22;10160;50.926;4.374;2022-11-02T10:18:54;19.70;99.90
19999;DHT22;10160;50.926;4.374;2022-11-02T10:21:26;19.50;99.90
19999;DHT22;10160;50.926;4.374;2022-11-02T10:23:56;19.30;99.90
19999;DHT22;10160;50.926;4.374;2022-11-02T10:26:33;19.10;99.90
19999;DHT22;10160;50.926;4.374;2022-11-02T10:32:00;19.60;99.90
19999;DHT22;10160;50.926;4.374;2022-11-02T10:34:27;19.80;99.90
19999;DHT22;10160;50.926;4.374;2022-11-02T10:37:11;19.70;99.90
19999;DHT22;10160;50.926;4.374;2022-11-02T10:39:45;20.30;99.90
19999;DHT22;10160;50.926;4.374;2022-11-02T10:50:46;20.90;99.90
19999;DHT22;10160;50.926;4.374;2022-11-02T10:53:15;19.80;99.90
19999;DHT22;10160;50.926;4.374;2022-11-02T10:56:03;19.30;99.90
19999;DHT22;10160;50.926;4.374;2022-11-02T10:58:32;19.00;99.90
19999;DHT22;10160;50.926;4.374;2022-11-02T11:01:09;18.00;99.90
19999;DHT22;10160;50.926;4.374;2022-11-02T11:04:04;17.80;99.90
19999;DHT22;10160;50.926;4.374;2022-11-02T11:06:40;17.80;99.90
19999;DHT22;10160;50.926;4.374;2022-11-02T11:11:58;18.10;99.90
19999;DHT22;10160;50.926;4.374;2022-11-02T11:14:27;17.90;99.90
19999;DHT22;10160;50.926;4.374;2022-11-02T11:16:56;17.90;99.90
19999;DHT22;10160;50.926;4.374;2022-11-02T11:21:50;17.00;99.90
19999;DHT22;10160;50.926;4.374;2022-11-02T11:24:31;17.00;99.90
19999;DHT22;10160;50.926;4.374;2022-11-02T11:29:36;17.50;99.90
19999;DHT22;10160;50.926;4.374;2022-11-02T11:32:02;17.80;99.90
19999;DHT22;10160;50.926;4.374;2022-11-02T11:34:31;18.00;99.90
19999;DHT22;10160;50.926;4.374;2022-11-02T11:37:11;18.60;99.90
19999;DHT22;10160;50.926;4.374;2022-11-02T11:39:41;19.90;99.90
19999;DHT22;10160;50.926;4.374;2022-11-02T11:42:19;21.40;99.90
19999;DHT22;10160;50.926;4.374;2022-11-02T11:44:57;21.20;99.90
19999;DHT22;10160;50.926;4.374;2022-11-02T11:47:29;20.90;99.90
19999;DHT22;10160;50.926;4.374;2022-11-02T11:50:03;21.20;99.90
19999;DHT22;10160;50.926;4.374;2022-11-02T11:52:33;21.10;99.90
19999;DHT22;10160;50.926;4.374;2022-11-02T11:55:00;21.40;99.90
19999;DHT22;10160;50.926;4.374;2022-11-02T11:57:31;21.80;99.90
19999;DHT22;10160;50.926;4.374;2022-11-02T12:00:04;20.90;99.90
19999;DHT22;10160;50.926;4.374;2022-11-02T12:03:05;21.40;99.90
19999;DHT22;10160;50.926;4.374;2022-11-02T12:05:46;21.20;99.90
19999;DHT22;10160;50.926;4.374;2022-11-02T12:08:27;21.40;99.90
19999;DHT22;10160;50.926;4.374;2022-11-02T12:13:44;21.30;99.90
19999;DHT22;10160;50.926;4.374;2022-11-02T12:16:46;21.50;99.90
19999;DHT22;10160;50.926;4.374;2022-11-02T12:22:19;22.40;99.90
19999;DHT22;10160;50.926;4.374;2022-11-02T12:30:17;20.40;99.90
19999;DHT22;10160;50.926;4.374;2022-11-02T12:41:11;19.60;99.90
19999;DHT22;10160;50.926;4.374;2022-11-02T12:43:42;20.20;99.90
19999;DHT22;10160;50.926;4.374;2022-11-02T12:49:06;22.30;99.90
19999;DHT22;10160;50.926;4.374;2022-11-02T12:51:39;20.50;99.90
19999;DHT22;10160;50.926;4.374;2022-11-02T12:54:12;20.30;99.90
19999;DHT22;10160;50.926;4.374;2022-11-02T12:56:51;20.00;99.90
19999;DHT22;10160;50.926;4.374;2022-11-02T12:59:26;20.10;99.90
19999;DHT22;10160;50.926;4.374;2022-11-02T13:05:18;19.80;99.90
19999;DHT22;10160;50.926;4.374;2022-11-02T13:10:48;18.20;99.90
19999;DHT22;10160;50.926;4.374;2022-11-02T13:13:16;18.60;99.90
19999;DHT22;10160;50.926;4.374;2022-11-02T13:15:45;19.20;99.90
19999;DHT22;10160;50.926;4.374;2022-11-02T13:18:27;18.80;99.90
19999;DHT22;10160;50.926;4.374;2022-11-02T13:20:59;18.20;99.90
19999;DHT22;10160;50.926;4.374;2022-11-02T13:23:56;17.90;99.90
19999;DHT22;10160;50.926;4.374;2022-11-02T13:26:35;18.00;99.90
19999;DHT22;10160;50.926;4.374;2022-11-02T13:29:16;19.10;99.90
19999;DHT22;10160;50.926;4.374;2022-11-02T13:31:55;19.80;99.90
19999;DHT22;10160;50.926;4.374;2022-11-02T13:34:39;19.80;99.90
19999;DHT22;10160;50.926;4.374;2022-11-02T13:39:50;17.80;99.90
19999;DHT22;10160;50.926;4.374;2022-11-02T13:50:15;17.30;99.90
19999;DHT22;10160;50.926;4.374;2022-11-02T13:52:48;18.00;99.90
19999;DHT22;10160;50.926;4.374;2022-11-02T13:55:19;18.50;99.90
19999;DHT22;10160;50.926;4.374;2022-11-02T13:57:48;18.90;99.90
19999;DHT22;10160;50.926;4.374;2022-11-02T14:00:42;19.30;99.90
19999;DHT22;10160;50.926;4.374;2022-11-02T14:03:34;19.70;99.90
19999;DHT22;10160;50.926;4.374;2022-11-02T14:05:59;19.60;99.90
19999;DHT22;10160;50.926;4.374;2022-11-02T14:19:31;18.30;99.90
19999;DHT22;10160;50.926;4.374;2022-11-02T14:22:14;18.30;99.90
19999;DHT22;10160;50.926;4.374;2022-11-02T14:40:25;16.60;99.90
19999;DHT22;10160;50.926;4.374;2022-11-02T14:45:55;16.70;99.90
19999;DHT22;10160;50.926;4.374;2022-11-02T14:48:24;17.30;99.90
19999;DHT22;10160;50.926;4.374;2022-11-02T14:51:03;17.50;99.90
19999;DHT22;10160;50.926;4.374;2022-11-02T14:53:35;17.30;99.90
19999;DHT22;10160;50.926;4.374;2022-11-02T14:56:01;17.50;99.90
19999;DHT22;10160;50.926;4.374;2022-11-02T14:58:49;17.60;99.90
19999;DHT22;10160;50.926;4.374;2022-11-02T15:01:16;17.90;99.90
19999;DHT22;10160;50.926;4.374;2022-11-02T15:03:43;18.10;99.90
19999;DHT22;10160;50.926;4.374;2022-11-02T15:06:21;17.80;99.90
19999;DHT22;10160;50.926;4.374;2022-11-02T15:09:01;17.20;99.90
19999;DHT22;10160;50.926;4.374;2022-11-02T15:11:49;17.20;99.90
19999;DHT22;10160;50.926;4.374;2022-11-02T15:16:56;16.90;99.90
19999;DHT22;10160;50.926;4.374;2022-11-02T15:19:44;16.50;99.90
19999;DHT22;10160;50.926;4.374;2022-11-02T15:25:24;16.70;99.90
19999;DHT22;10160;50.926;4.374;2022-11-02T15:27:48;16.70;99.90
19999;DHT22;10160;50.926;4.374;2022-11-02T15:30:19;16.70;99.90
19999;DHT22;10160;50.926;4.374;2022-11-02T15:33:04;16.50;99.90
19999;DHT22;10160;50.926;4.374;2022-11-02T15:35:33;16.30;99.90
19999;DHT22;10160;50.926;4.374;2022-11-02T15:38:02;16.10;99.90
19999;DHT22;10160;50.926;4.374;2022-11-02T15:40:34;15.80;99.90
19999;DHT22;10160;50.926;4.374;2022-11-02T15:45:54;15.30;99.90
19999;DHT22;10160;50.926;4.374;2022-11-02T15:48:42;15.40;99.90
19999;DHT22;10160;50.926;4.374;2022-11-02T16:02:34;14.90;99.90
19999;DHT22;10160;50.926;4.374;2022-11-02T16:05:01;14.90;99.90
19999;DHT22;10160;50.926;4.374;2022-11-02T16:07:31;14.70;99.90
19999;DHT22;10160;50.926;4.374;2022-11-02T16:10:32;14.60;99.90
19999;DHT22;10160;50.926;4.374;2022-11-02T16:13:13;14.50;99.90
19999;DHT22;10160;50.926;4.374;2022-11-02T16:15:41;14.50;99.90
19999;DHT22;10160;50.926;4.374;2022-11-02T16:18:25;14.40;99.90
19999;DHT22;10160;50.926;4.374;2022-11-02T16:20:59;14.40;99.90
19999;DHT22;10160;50.926;4.374;2022-11-02T16:23:38;14.30;99.90
19999;DHT22;10160;50.926;4.374;2022-11-02T16:26:06;14.40;99.90
19999;DHT22;10160;50.926;4.374;2022-11-02T16:28:36;14.50;99.90
19999;DHT22;10160;50.926;4.374;2022-11-02T16:33:43;14.40;99.90
19999;DHT22;10160;50.926;4.374;2022-11-02T16:36:15;14.40;99.90
19999;DHT22;10160;50.926;4.374;2022-11-02T16:39:03;14.30;99.90
19999;DHT22;10160;50.926;4.374;2022-11-02T16:41:34;14.40;99.90
19999;DHT22;10160;50.926;4.374;2022-11-02T16:44:07;14.30;99.90
19999;DHT22;10160;50.926;4.374;2022-11-02T16:46:46;14.30;99.90
19999;DHT22;10160;50.926;4.374;2022-11-02T16:49:20;14.30;99.90
19999;DHT22;10160;50.926;4.374;2022-11-02T16:51:51;14.10;99.90
19999;DHT22;10160;50.926;4.374;2022-11-02T16:59:31;14.10;99.90
19999;DHT22;10160;50.926;4.374;2022-11-02T17:01:59;13.90;99.90
19999;DHT22;10160;50.926;4.374;2022-11-02T17:04:29;13.90;99.90
19999;DHT22;10160;50.926;4.374;2022-11-02T17:06:59;14.00;99.90
19999;DHT22;10160;50.926;4.374;2022-11-02T17:09:33;14.10;99.90
19999;DHT22;10160;50.926;4.374;2022-11-02T17:12:08;14.00;99.90
19999;DHT22;10160;50.926;4.374;2022-11-02T17:14:40;14.20;99.90
19999;DHT22;10160;50.926;4.374;2022-11-02T17:17:33;14.00;99.90
19999;DHT22;10160;50.926;4.374;2022-11-02T17:23:01;13.90;99.90
19999;DHT22;10160;50.926;4.374;2022-11-02T17:25:33;13.90;99.90
19999;DHT22;10160;50.926;4.374;2022-11-02T17:28:01;14.00;99.90
19999;DHT22;10160;50.926;4.374;2022-11-02T17:33:06;14.00;99.90
19999;DHT22;10160;50.926;4.374;2022-11-02T17:35:33;14.10;99.90
19999;DHT22;10160;50.926;4.374;2022-11-02T17:37:59;14.10;99.90
19999;DHT22;10160;50.926;4.374;2022-11-02T17:40:25;14.00;99.90
19999;DHT22;10160;50.926;4.374;2022-11-02T17:42:51;13.90;99.90
19999;DHT22;10160;50.926;4.374;2022-11-02T17:45:35;13.90;99.90
19999;DHT22;10160;50.926;4.374;2022-11-02T17:48:05;13.80;99.90
19999;DHT22;10160;50.926;4.374;2022-11-02T17:50:34;13.90;99.90
19999;DHT22;10160;50.926;4.374;2022-11-02T17:53:01;13.80;99.90
19999;DHT22;10160;50.926;4.374;2022-11-02T17:55:32;13.80;99.90
19999;DHT22;10160;50.926;4.374;2022-11-02T17:57:58;13.90;99.90
19999;DHT22;10160;50.926;4.374;2022-11-02T18:00:25;14.00;99.90
19999;DHT22;10160;50.926;4.374;2022-11-02T18:02:54;13.90;99.90
19999;DHT22;10160;50.926;4.374;2022-11-02T18:05:26;13.90;99.90
19999;DHT22;10160;50.926;4.374;2022-11-02T18:07:53;13.90;99.90
19999;DHT22;10160;50.926;4.374;2022-11-02T18:10:21;13.90;99.90
19999;DHT22;10160;50.926;4.374;2022-11-02T18:12:47;13.90;99.90
19999;DHT22;10160;50.926;4.374;2022-11-02T18:15:16;13.90;99.90
19999;DHT22;10160;50.926;4.374;2022-11-02T18:17:42;13.70;99.90
19999;DHT22;10160;50.926;4.374;2022-11-02T18:20:08;13.70;99.90
19999;DHT22;10160;50.926;4.374;2022-11-02T18:22:35;13.80;99.90
19999;DHT22;10160;50.926;4.374;2022-11-02T18:25:00;13.70;99.90
19999;DHT22;10160;50.926;4.374;2022-11-02T18:27:26;13.70;99.90
19999;DHT22;10160;50.926;4.374;2022-11-02T18:29:52;13.80;99.90